Latest Weather Observations for Kalgoorlie-Boulder

IDW60801

Issued at 10:32 pm WST Sunday 1 February 2015 (issued every 30 minutes, with the page automatically refreshed every 10 minutes)

About weather observations | Map of weather stations | Latest weather observations for WA | Other Formats
Station Details ID: 012038 Name: KALGOORLIE-BOULDER AIRPORT Lat: -30.78 Lon: 121.45 Height: 365.3 m
Data from the previous 72 hours. | See also: Recent months at Kalgoorlie-Boulder
Date/Time
WST
Temp
°C
App
Temp
°C
Dew
Point
Rel
Hum
%
Delta-T
°C
Wind Press
QNH
hPa
Press
MSL
hPa
Rain
since 9 am
mm
Dir
 
Spd
km/h
Gust
km/h
Spd
kts
Gust
kts
01/10:30pm 23.6 19.8 6.0 32 9.1 ESE 15 17 8 9 1017.0 - 0.0
01/10:00pm 24.6 20.5 6.0 30 9.7 E 17 20 9 11 1016.8 - 0.0
01/09:30pm 24.7 20.6 6.4 31 9.6 E 17 22 9 12 1016.8 - 0.0
01/09:00pm 24.7 20.3 6.4 31 9.6 ESE 19 22 10 12 1016.8 1014.8 0.0
01/08:30pm 25.1 20.2 5.1 27 10.3 ESE 20 26 11 14 1016.8 - 0.0
01/08:00pm 25.6 21.4 5.6 27 10.4 E 17 28 9 15 1017.0 - 0.0
01/07:30pm 26.0 20.5 6.0 27 10.5 E 24 33 13 18 1016.7 - 0.0
01/07:00pm 26.2 20.7 5.8 27 10.7 E 24 30 13 16 1016.4 - 0.0
01/06:30pm 26.8 21.2 5.6 25 11.1 E 24 35 13 19 1016.5 - 0.0
01/06:00pm 27.6 21.8 4.6 23 11.9 E 24 35 13 19 1016.4 1014.4 0.0
01/05:30pm 28.3 22.4 3.7 20 12.6 E 24 30 13 16 1016.3 - 0.0
01/05:00pm 28.3 22.2 3.0 19 12.8 ENE 24 33 13 18 1016.7 - 0.0
01/04:30pm 28.0 22.1 4.1 21 12.3 E 24 33 13 18 1016.8 - 0.0
01/04:00pm 28.3 21.5 3.0 19 12.8 ENE 28 35 15 19 1017.0 - 0.0
01/03:30pm 29.1 22.2 2.5 18 13.4 E 28 39 15 21 1017.2 - 0.0
01/03:00pm 28.5 22.3 1.9 18 13.2 ENE 24 35 13 19 1017.3 1015.3 0.0
01/02:30pm 28.4 22.7 4.8 22 12.3 ESE 24 35 13 19 1017.6 - 0.0
01/02:00pm 27.8 22.9 5.0 23 11.9 E 20 33 11 18 1017.9 - 0.0
01/01:30pm 27.5 22.5 6.3 26 11.3 ENE 22 35 12 19 1018.0 - 0.0
01/01:00pm 26.9 22.0 7.0 28 10.7 ENE 22 32 12 17 1018.6 - 0.0
01/12:30pm 25.0 20.7 7.7 33 9.3 E 20 28 11 15 1019.0 - 0.0
01/12:00pm 25.4 21.5 8.8 35 9.1 ENE 19 28 10 15 1019.2 1017.2 0.0
01/11:30am 24.2 20.8 9.1 38 8.3 ENE 17 26 9 14 1019.6 - 0.0
01/11:00am 23.5 19.6 9.3 40 7.8 ENE 20 30 11 16 1019.9 - 0.0
01/10:30am 22.9 18.6 9.4 42 7.4 ENE 22 32 12 17 1019.7 - 0.0
01/10:00am 22.5 18.6 9.5 43 7.1 E 20 32 11 17 1019.9 - 0.0
01/09:30am 21.8 18.0 9.8 46 6.6 ENE 20 28 11 15 1020.2 - 0.0
01/09:00am 20.7 16.9 9.9 50 5.9 E 20 28 11 15 1019.8 1017.8 0.0
01/08:30am 20.4 16.3 10.2 52 5.6 E 22 32 12 17 1019.9 - 0.0
01/07:30am 18.6 14.6 10.5 59 4.4 E 22 30 12 16 1019.3 - 0.0
01/07:00am 18.4 13.7 10.7 61 4.2 E 26 35 14 19 1018.9 - 0.0
01/06:30am 17.8 12.3 10.4 62 4.0 E 30 39 16 21 1018.2 - 0.0
01/06:00am 17.0 11.8 10.3 64 3.6 ESE 28 35 15 19 1017.7 1015.6 0.0
01/05:30am 17.0 11.3 9.9 63 3.8 ESE 30 39 16 21 1017.2 - 0.0
01/05:00am 17.2 11.1 9.9 62 3.9 ESE 32 41 17 22 1016.9 - 0.0
01/04:30am 17.6 12.0 10.0 61 4.1 ESE 30 35 16 19 1016.9 - 0.0
01/04:00am 18.0 12.3 9.8 58 4.4 ESE 30 37 16 20 1016.5 - 0.0
01/03:30am 18.2 12.1 9.6 57 4.6 ESE 32 43 17 23 1016.1 - 0.0
01/03:00am 18.7 13.7 9.4 54 5.0 ESE 26 33 14 18 1016.3 1014.3 0.0
01/02:30am 19.1 13.7 9.4 53 5.2 ESE 28 35 15 19 1016.2 - 0.0
01/02:00am 19.6 14.6 9.4 51 5.5 ESE 26 35 14 19 1015.9 - 0.0
01/01:30am 19.9 14.5 9.6 51 5.6 ESE 28 35 15 19 1015.7 - 0.0
01/01:00am 20.3 15.3 9.4 49 5.9 E 26 35 14 19 1016.1 - 0.0
01/12:30am 20.7 15.2 9.2 47 6.2 ESE 28 35 15 19 1016.0 - 0.0
01/12:00am 21.5 15.9 8.9 44 6.8 ESE 28 41 15 22 1016.1 1013.9 0.0
 
Date/Time
WST
Temp
°C
App
Temp
°C
Dew
Point
Rel
Hum
%
Delta-T
°C
Wind Press
QNH
hPa
Press
MSL
hPa
Rain
since 9 am
mm
Dir
 
Spd
km/h
Gust
km/h
Spd
kts
Gust
kts
31/11:30pm 22.4 16.0 8.5 41 7.5 ESE 32 43 17 23 1016.1 - 0.0
31/11:00pm 23.1 17.4 8.2 38 8.0 ESE 28 39 15 21 1016.2 - 0.0
31/10:30pm 24.3 17.0 7.2 33 9.1 ESE 35 44 19 24 1016.0 - 0.0
31/10:25pm 24.5 18.1 6.9 32 9.3 E 30 44 16 24 1016.0 - 0.0
31/10:00pm 25.2 19.9 5.2 27 10.3 ESE 22 26 12 14 1016.2 - 0.0
31/09:30pm 25.4 21.0 5.0 27 10.5 ESE 17 24 9 13 1016.5 - 0.0
31/09:00pm 25.7 20.9 4.9 26 10.7 E 19 26 10 14 1016.5 1014.4 0.0
31/08:30pm 25.8 20.9 5.1 26 10.7 E 20 28 11 15 1016.3 - 0.0
31/08:00pm 26.0 21.7 5.4 26 10.7 ESE 17 28 9 15 1016.1 - 0.0
31/07:30pm 25.9 21.4 5.9 27 10.5 SE 19 26 10 14 1015.7 - 0.0
31/07:00pm 26.1 20.9 5.3 26 10.8 SE 22 30 12 16 1015.4 - 0.0
31/06:30pm 26.1 20.4 4.7 25 11.0 SE 24 32 13 17 1015.4 - 0.0
31/06:00pm 26.0 21.2 5.7 27 10.6 SE 20 28 11 15 1015.4 1013.2 0.0
31/05:30pm 26.5 21.8 6.0 27 10.8 ESE 20 28 11 15 1015.1 - 0.0
31/05:00pm 26.4 20.9 6.1 27 10.7 SE 24 32 13 17 1015.1 - 0.0
31/04:30pm 26.5 21.7 5.4 26 11.0 SE 20 32 11 17 1015.3 - 0.0
31/04:00pm 25.9 21.1 5.6 27 10.6 ESE 20 28 11 15 1015.4 - 0.0
31/03:30pm 26.6 20.3 5.9 26 10.9 ESE 28 37 15 20 1015.5 - 0.0
31/03:00pm 26.2 20.9 6.9 29 10.3 ESE 24 37 13 20 1015.6 1013.4 0.0
31/02:30pm 25.3 20.1 7.1 31 9.7 ESE 24 35 13 19 1015.6 - 0.0
31/02:00pm 25.6 19.2 6.8 30 10.0 ESE 30 37 16 20 1015.5 - 0.0
31/01:30pm 25.7 20.2 7.5 31 9.8 ESE 26 33 14 18 1015.7 - 0.0
31/01:00pm 25.4 20.8 8.1 33 9.4 E 22 32 12 17 1015.9 - 0.0
31/12:30pm 24.7 19.4 8.3 35 8.9 ESE 26 35 14 19 1016.2 - 0.0
31/12:00pm 24.3 20.0 9.2 38 8.3 ESE 22 35 12 19 1016.5 1014.4 0.0
31/11:30am 24.3 19.2 9.2 38 8.3 ESE 26 39 14 21 1016.7 - 0.0
31/11:00am 22.5 17.9 9.8 44 7.0 SE 24 32 13 17 1017.1 - 0.0
31/10:30am 22.2 17.0 10.3 46 6.6 ESE 28 35 15 19 1017.2 - 0.0
31/10:00am 20.8 17.2 10.7 52 5.6 SE 20 26 11 14 1017.4 - 0.0
31/09:30am 20.0 16.1 10.8 55 5.1 E 22 32 12 17 1017.8 - 0.0
31/09:00am 20.0 15.3 10.8 55 5.1 ESE 26 33 14 18 1017.6 1015.4 0.0
31/08:30am 20.1 15.4 10.7 54 5.2 ESE 26 35 14 19 1018.2 - 0.0
31/08:00am 18.5 13.8 10.6 60 4.3 E 26 32 14 17 1018.6 - 0.0
31/07:30am 18.3 14.4 10.8 61 4.1 E 22 32 12 17 1018.6 - 0.0
31/07:00am 17.8 13.5 10.6 62 3.9 ESE 24 33 13 18 1018.5 - 0.0
31/06:30am 17.5 13.2 10.9 65 3.6 E 24 33 13 18 1018.1 - 0.0
31/06:00am 17.0 12.4 11.0 68 3.3 ESE 26 33 14 18 1017.8 1015.6 0.0
31/05:30am 17.0 12.8 11.0 68 3.3 ESE 24 32 13 17 1017.4 - 0.0
31/05:00am 17.1 12.5 10.9 67 3.4 ESE 26 32 14 17 1017.0 - 0.0
31/04:30am 17.0 13.5 11.0 68 3.3 ESE 20 26 11 14 1016.5 - 0.0
31/04:00am 17.1 12.8 10.9 67 3.4 ESE 24 33 13 18 1016.1 - 0.0
31/03:30am 17.5 13.5 10.5 63 3.8 SE 22 32 12 17 1016.0 - 0.0
31/03:00am 17.9 12.8 10.6 62 4.0 ESE 28 37 15 20 1015.8 1013.6 0.0
31/02:30am 18.3 13.2 10.6 61 4.2 SE 28 37 15 20 1015.2 - 0.0
31/02:00am 18.9 13.4 10.7 59 4.5 ESE 30 41 16 22 1015.0 - 0.0
31/01:30am 19.5 15.1 10.4 55 5.0 SE 24 35 13 19 1015.0 - 0.0
31/01:00am 20.2 14.2 10.2 52 5.5 ESE 32 41 17 22 1014.7 - 0.0
31/12:30am 20.9 15.7 10.2 50 5.9 ESE 28 35 15 19 1014.4 - 0.0
31/12:00am 21.6 15.0 10.0 47 6.4 ESE 35 46 19 25 1014.9 1012.7 0.0
 
Date/Time
WST
Temp
°C
App
Temp
°C
Dew
Point
Rel
Hum
%
Delta-T
°C
Wind Press
QNH
hPa
Press
MSL
hPa
Rain
since 9 am
mm
Dir
 
Spd
km/h
Gust
km/h
Spd
kts
Gust
kts
30/11:30pm 22.5 16.2 9.6 44 7.1 ESE 33 46 18 25 1014.9 - 0.0
30/11:00pm 23.6 16.9 9.5 40 7.8 ESE 35 48 19 26 1014.7 - 0.0
30/10:30pm 24.6 18.4 9.4 38 8.4 ESE 32 43 17 23 1014.7 - 0.0
30/10:00pm 26.0 19.1 9.0 34 9.4 ESE 35 44 19 24 1014.4 - 0.0
30/09:30pm 28.5 22.6 6.0 24 12.0 ESE 26 37 14 20 1013.8 - 0.0
30/09:00pm 29.1 23.9 5.3 22 12.6 ESE 22 30 12 16 1013.5 1011.3 0.0
30/08:30pm 29.6 24.7 5.0 21 13.0 SE 20 28 11 15 1013.1 - 0.0
30/08:00pm 30.2 24.0 4.5 19 13.5 ESE 26 39 14 21 1012.9 - 0.0
30/07:30pm 30.6 23.3 4.7 19 13.7 ESE 32 41 17 22 1012.4 - 0.0
30/07:00pm 31.2 24.9 3.9 17 14.3 ESE 26 32 14 17 1012.2 - 0.0
30/06:30pm 31.5 25.1 3.4 17 14.6 SE 26 37 14 20 1011.9 - 0.0
30/06:00pm 32.1 25.3 3.3 16 15.0 ESE 28 37 15 20 1011.5 1009.4 0.0
30/05:30pm 32.4 26.0 3.3 16 15.2 SE 26 35 14 19 1011.2 - 0.0
30/05:00pm 33.5 27.0 2.4 14 16.1 SSE 26 37 14 20 1010.9 - 0.0
30/04:30pm 33.5 25.8 2.4 14 16.1 SE 32 43 17 23 1010.8 - 0.0
30/04:07pm 33.9 26.1 1.8 13 16.5 ESE 32 50 17 27 1010.8 - 0.0
30/04:00pm 34.2 27.0 0.9 12 16.9 SE 28 35 15 19 1011.0 - 0.0
30/03:30pm 34.2 28.0 2.1 13 16.6 SE 24 39 13 21 1011.2 - 0.0
30/03:00pm 34.8 27.7 1.2 12 17.2 SSE 28 37 15 20 1011.4 1009.2 0.0
30/02:30pm 34.9 27.9 2.2 13 17.0 SSE 28 43 15 23 1011.6 - 0.0
30/02:00pm 34.8 28.8 3.5 14 16.6 SE 24 35 13 19 1012.0 - 0.0
30/01:30pm 34.5 28.6 2.0 13 16.8 SE 22 32 12 17 1012.3 - 0.0
30/01:00pm 34.8 29.7 0.7 11 17.3 SE 17 28 9 15 1012.6 - 0.0
30/12:30pm 33.0 27.5 0.7 13 16.2 ESE 19 33 10 18 1013.0 - 0.0
30/12:00pm 32.9 28.6 0.9 13 16.1 ENE 13 22 7 12 1013.2 1011.0 0.0
30/11:30am 32.5 27.6 -0.6 12 16.2 ESE 15 28 8 15 1013.6 - 0.0
30/11:00am 32.1 27.4 0.9 13 15.6 E 15 24 8 13 1013.9 - 0.0
30/10:30am 31.0 26.8 1.9 15 14.7 NE 13 19 7 10 1014.2 - 0.0
30/10:00am 30.4 25.4 1.3 15 14.5 E 17 26 9 14 1014.4 - 0.0
30/09:30am 29.3 24.0 1.9 17 13.7 E 19 24 10 13 1014.5 - 0.0
30/09:00am 29.5 23.3 1.9 17 13.8 E 24 33 13 18 1014.4 1012.3 0.0
30/08:30am 27.8 22.4 2.7 20 12.6 E 20 30 11 16 1014.5 - 0.0
30/08:00am 26.7 21.1 3.6 22 11.7 E 22 32 12 17 1014.5 - 0.0
30/07:30am 25.3 20.5 4.5 26 10.6 E 19 26 10 14 1014.5 - 0.0
30/07:00am 24.3 19.3 4.6 28 10.0 E 20 28 11 15 1014.3 - 0.0
30/06:30am 23.3 18.2 2.8 26 10.0 ESE 19 24 10 13 1014.2 - 0.0
30/06:00am 22.9 17.8 3.1 27 9.7 ESE 19 22 10 12 1014.0 1011.9 0.0
30/05:30am 22.5 17.4 3.3 28 9.4 E 19 24 10 13 1013.7 - 0.0
30/05:00am 22.6 17.0 3.5 28 9.4 ESE 22 30 12 16 1013.1 - 0.0
30/04:30am 22.9 17.8 4.3 29 9.3 E 20 30 11 16 1013.0 - 0.0
30/04:00am 22.8 18.6 5.6 32 8.8 E 17 26 9 14 1012.8 - 0.0
30/03:30am 22.9 18.2 6.1 33 8.7 ESE 20 24 11 13 1012.4 - 0.0
30/03:00am 23.3 18.3 6.4 33 8.8 ESE 22 26 12 14 1012.3 1010.1 0.0
30/02:30am 24.0 19.1 6.7 33 9.1 ESE 22 32 12 17 1012.3 - 0.0
30/02:00am 24.2 19.4 7.3 34 9.0 ESE 22 28 12 15 1012.1 - 0.0
30/01:30am 24.8 19.7 7.5 33 9.3 ESE 24 28 13 15 1012.0 - 0.0
30/01:00am 25.7 20.6 7.6 31 9.8 ESE 24 30 13 16 1012.0 - 0.0
30/12:30am 26.6 21.1 7.4 29 10.4 ESE 26 35 14 19 1012.3 - 0.0
30/12:00am 27.5 21.4 4.8 23 11.8 ESE 26 35 14 19 1011.8 1009.6 0.0
 
Date/Time
WST
Temp
°C
App
Temp
°C
Dew
Point
Rel
Hum
%
Delta-T
°C
Wind Press
QNH
hPa
Press
MSL
hPa
Rain
since 9 am
mm
Dir
 
Spd
km/h
Gust
km/h
Spd
kts
Gust
kts
29/11:30pm 28.5 21.0 1.3 17 13.4 E 30 44 16 24 1011.3 - 0.0
29/11:00pm 29.7 21.2 -3.1 11 15.1 E 32 48 17 26 1011.2 - 0.0
29/10:51pm 30.0 21.8 -3.8 11 15.4 E 30 48 16 26 1011.2 - 0.0

Other Formats:

Comma delimited format used in spreadsheet applications
http://www.bom.gov.au/fwo/IDW60801/IDW60801.94637.axf

JavaScript Object Notation format (JSON) in row-major order
http://www.bom.gov.au/fwo/IDW60801/IDW60801.94637.json